sensor_id;sensor_type;location;lat;lon;timestamp;pressure;altitude;pressure_sealevel;temperature;humidity
8699;BME280;4386;51.236;6.742;2022-07-05T00:01:05;101633.25;;;20.78;56.42
8699;BME280;4386;51.236;6.742;2022-07-05T00:02:10;101636.97;;;20.77;56.72
8699;BME280;4386;51.236;6.742;2022-07-05T00:03:12;101631.72;;;20.75;56.44
8699;BME280;4386;51.236;6.742;2022-07-05T00:04:17;101629.88;;;20.76;56.48
8699;BME280;4386;51.236;6.742;2022-07-05T00:05:18;101636.25;;;20.75;56.67
8699;BME280;4386;51.236;6.742;2022-07-05T00:06:22;101636.44;;;20.73;56.65
8699;BME280;4386;51.236;6.742;2022-07-05T00:07:23;101630.22;;;20.73;56.90
8699;BME280;4386;51.236;6.742;2022-07-05T00:08:26;101626.84;;;20.71;56.64
8699;BME280;4386;51.236;6.742;2022-07-05T00:09:28;101632.22;;;20.71;56.99
8699;BME280;4386;51.236;6.742;2022-07-05T00:10:31;101629.53;;;20.71;57.13
8699;BME280;4386;51.236;6.742;2022-07-05T00:11:34;101626.84;;;20.71;56.70
8699;BME280;4386;51.236;6.742;2022-07-05T00:12:36;101626.00;;;20.70;56.95
8699;BME280;4386;51.236;6.742;2022-07-05T00:13:38;101621.47;;;20.71;56.96
8699;BME280;4386;51.236;6.742;2022-07-05T00:14:43;101624.97;;;20.71;56.68
8699;BME280;4386;51.236;6.742;2022-07-05T00:15:46;101628.50;;;20.72;57.11
8699;BME280;4386;51.236;6.742;2022-07-05T00:16:49;101625.81;;;20.72;56.97
8699;BME280;4386;51.236;6.742;2022-07-05T00:17:50;101632.22;;;20.71;56.81
8699;BME280;4386;51.236;6.742;2022-07-05T00:18:55;101629.53;;;20.71;56.65
8699;BME280;4386;51.236;6.742;2022-07-05T00:19:56;101627.66;;;20.71;56.75
8699;BME280;4386;51.236;6.742;2022-07-05T00:20:59;101630.53;;;20.70;57.28
8699;BME280;4386;51.236;6.742;2022-07-05T00:22:01;101622.44;;;20.70;57.09
8699;BME280;4386;51.236;6.742;2022-07-05T00:23:03;101630.53;;;20.70;57.04
8699;BME280;4386;51.236;6.742;2022-07-05T00:24:06;101625.28;;;20.68;56.96
8699;BME280;4386;51.236;6.742;2022-07-05T00:25:16;101627.16;;;20.68;56.89
8699;BME280;4386;51.236;6.742;2022-07-05T00:26:18;101630.00;;;20.66;56.96
8699;BME280;4386;51.236;6.742;2022-07-05T00:27:20;101625.63;;;20.65;56.69
8699;BME280;4386;51.236;6.742;2022-07-05T00:28:22;101636.56;;;20.64;57.01
8699;BME280;4386;51.236;6.742;2022-07-05T00:29:25;101626.78;;;20.63;56.56
8699;BME280;4386;51.236;6.742;2022-07-05T00:30:28;101636.72;;;20.62;57.01
8699;BME280;4386;51.236;6.742;2022-07-05T00:31:30;101636.91;;;20.61;56.82
8699;BME280;4386;51.236;6.742;2022-07-05T00:32:32;101631.53;;;20.61;56.85
8699;BME280;4386;51.236;6.742;2022-07-05T00:33:34;101636.91;;;20.61;56.78
8699;BME280;4386;51.236;6.742;2022-07-05T00:34:36;101634.22;;;20.61;56.61
8699;BME280;4386;51.236;6.742;2022-07-05T00:35:39;101636.06;;;20.60;56.52
8699;BME280;4386;51.236;6.742;2022-07-05T00:36:44;101636.91;;;20.61;56.70
8699;BME280;4386;51.236;6.742;2022-07-05T00:37:46;101632.50;;;20.60;56.26
8699;BME280;4386;51.236;6.742;2022-07-05T00:38:48;101632.66;;;20.58;56.55
8699;BME280;4386;51.236;6.742;2022-07-05T00:39:50;101637.22;;;20.58;56.64
8699;BME280;4386;51.236;6.742;2022-07-05T00:40:52;101637.22;;;20.58;56.38
8699;BME280;4386;51.236;6.742;2022-07-05T00:41:55;101629.28;;;20.56;56.17
8699;BME280;4386;51.236;6.742;2022-07-05T00:42:56;101632.16;;;20.55;56.41
8699;BME280;4386;51.236;6.742;2022-07-05T00:44:02;101637.84;;;20.52;56.45
8699;BME280;4386;51.236;6.742;2022-07-05T00:45:04;101636.19;;;20.51;56.23
8699;BME280;4386;51.236;6.742;2022-07-05T00:46:09;101632.78;;;20.49;56.41
8699;BME280;4386;51.236;6.742;2022-07-05T00:47:12;101638.19;;;20.49;56.49
8699;BME280;4386;51.236;6.742;2022-07-05T00:48:15;101636.50;;;20.48;56.05
8699;BME280;4386;51.236;6.742;2022-07-05T00:49:19;101638.50;;;20.46;56.19
8699;BME280;4386;51.236;6.742;2022-07-05T00:50:22;101640.19;;;20.47;56.06
8699;BME280;4386;51.236;6.742;2022-07-05T00:51:25;101638.50;;;20.46;56.72
8699;BME280;4386;51.236;6.742;2022-07-05T00:52:28;101645.59;;;20.47;56.75
8699;BME280;4386;51.236;6.742;2022-07-05T00:53:31;101646.59;;;20.46;56.22
8699;BME280;4386;51.236;6.742;2022-07-05T00:54:34;101637.50;;;20.47;56.46
8699;BME280;4386;51.236;6.742;2022-07-05T00:55:37;101644.75;;;20.46;56.55
8699;BME280;4386;51.236;6.742;2022-07-05T00:56:40;101641.19;;;20.46;56.41
8699;BME280;4386;51.236;6.742;2022-07-05T00:57:43;101641.38;;;20.44;56.95
8699;BME280;4386;51.236;6.742;2022-07-05T00:58:48;101645.91;;;20.44;56.58
8699;BME280;4386;51.236;6.742;2022-07-05T00:59:50;101645.06;;;20.43;56.66
8699;BME280;4386;51.236;6.742;2022-07-05T01:00:53;101643.22;;;20.44;56.97
8699;BME280;4386;51.236;6.742;2022-07-05T01:01:57;101640.53;;;20.44;57.03
8699;BME280;4386;51.236;6.742;2022-07-05T01:02:59;101644.22;;;20.43;56.75
8699;BME280;4386;51.236;6.742;2022-07-05T01:04:03;101644.22;;;20.43;57.01
8699;BME280;4386;51.236;6.742;2022-07-05T01:05:08;101640.84;;;20.41;57.00
8699;BME280;4386;51.236;6.742;2022-07-05T01:06:12;101643.53;;;20.41;57.02
8699;BME280;4386;51.236;6.742;2022-07-05T01:07:14;101651.63;;;20.41;56.94
8699;BME280;4386;51.236;6.742;2022-07-05T01:08:17;101646.22;;;20.41;56.91
8699;BME280;4386;51.236;6.742;2022-07-05T01:09:20;101647.22;;;20.40;56.84
8699;BME280;4386;51.236;6.742;2022-07-05T01:10:24;101649.06;;;20.39;57.31
8699;BME280;4386;51.236;6.742;2022-07-05T01:11:27;101648.22;;;20.39;57.27
8699;BME280;4386;51.236;6.742;2022-07-05T01:12:30;101646.56;;;20.38;57.25
8699;BME280;4386;51.236;6.742;2022-07-05T01:13:33;101644.84;;;20.37;57.09
8699;BME280;4386;51.236;6.742;2022-07-05T01:14:35;101643.16;;;20.36;57.53
8699;BME280;4386;51.236;6.742;2022-07-05T01:15:39;101646.88;;;20.35;57.30
8699;BME280;4386;51.236;6.742;2022-07-05T01:16:44;101632.72;;;20.33;57.09
8699;BME280;4386;51.236;6.742;2022-07-05T01:17:48;101639.28;;;20.30;57.58
8699;BME280;4386;51.236;6.742;2022-07-05T01:18:51;101635.72;;;20.30;57.21
8699;BME280;4386;51.236;6.742;2022-07-05T01:19:53;101639.44;;;20.29;57.28
8699;BME280;4386;51.236;6.742;2022-07-05T01:20:58;101639.28;;;20.30;57.38
8699;BME280;4386;51.236;6.742;2022-07-05T01:22:02;101640.13;;;20.31;57.68
8699;BME280;4386;51.236;6.742;2022-07-05T01:23:07;101640.78;;;20.33;57.56
8699;BME280;4386;51.236;6.742;2022-07-05T01:24:11;101642.50;;;20.34;57.39
8699;BME280;4386;51.236;6.742;2022-07-05T01:25:13;101653.25;;;20.34;57.39
8699;BME280;4386;51.236;6.742;2022-07-05T01:26:16;101645.19;;;20.34;57.38
8699;BME280;4386;51.236;6.742;2022-07-05T01:27:18;101648.03;;;20.32;57.38
8699;BME280;4386;51.236;6.742;2022-07-05T01:28:23;101647.88;;;20.34;57.47
8699;BME280;4386;51.236;6.742;2022-07-05T01:29:25;101647.34;;;20.30;57.71
8699;BME280;4386;51.236;6.742;2022-07-05T01:30:29;101651.88;;;20.30;57.48
8699;BME280;4386;51.236;6.742;2022-07-05T01:31:32;101645.81;;;20.27;57.43
8699;BME280;4386;51.236;6.742;2022-07-05T01:32:34;101639.72;;;20.25;57.71
8699;BME280;4386;51.236;6.742;2022-07-05T01:33:37;101644.41;;;20.23;57.51
8699;BME280;4386;51.236;6.742;2022-07-05T01:34:40;101646.13;;;20.24;57.27
8699;BME280;4386;51.236;6.742;2022-07-05T01:35:44;101648.63;;;20.26;57.32
8699;BME280;4386;51.236;6.742;2022-07-05T01:36:46;101655.59;;;20.29;57.73
8699;BME280;4386;51.236;6.742;2022-07-05T01:37:50;101651.88;;;20.30;57.41
8699;BME280;4386;51.236;6.742;2022-07-05T01:38:54;101648.88;;;20.33;57.57
8699;BME280;4386;51.236;6.742;2022-07-05T01:39:57;101646.03;;;20.34;57.27
8699;BME280;4386;51.236;6.742;2022-07-05T01:41:01;101652.09;;;20.36;57.55
8699;BME280;4386;51.236;6.742;2022-07-05T01:42:03;101654.78;;;20.36;57.66
8699;BME280;4386;51.236;6.742;2022-07-05T01:43:07;101658.19;;;20.38;57.53
8699;BME280;4386;51.236;6.742;2022-07-05T01:44:08;101656.31;;;20.39;57.31
8699;BME280;4386;51.236;6.742;2022-07-05T01:45:11;101658.31;;;20.37;57.09
8699;BME280;4386;51.236;6.742;2022-07-05T01:46:15;101658.31;;;20.37;57.35
8699;BME280;4386;51.236;6.742;2022-07-05T01:47:17;101657.66;;;20.35;57.15
8699;BME280;4386;51.236;6.742;2022-07-05T01:48:22;101654.09;;;20.34;57.37
8699;BME280;4386;51.236;6.742;2022-07-05T01:49:24;101655.94;;;20.34;57.74
8699;BME280;4386;51.236;6.742;2022-07-05T01:50:31;101647.19;;;20.32;57.48
8699;BME280;4386;51.236;6.742;2022-07-05T01:51:39;101645.66;;;20.29;57.70
8699;BME280;4386;51.236;6.742;2022-07-05T01:52:43;101642.41;;;20.25;57.55
8699;BME280;4386;51.236;6.742;2022-07-05T01:53:49;101651.66;;;20.23;57.61
8699;BME280;4386;51.236;6.742;2022-07-05T01:54:54;101653.81;;;20.19;57.67
8699;BME280;4386;51.236;6.742;2022-07-05T01:55:57;101645.91;;;20.18;58.03
8699;BME280;4386;51.236;6.742;2022-07-05T01:57:01;101651.63;;;20.15;58.10
8699;BME280;4386;51.236;6.742;2022-07-05T01:58:06;101651.94;;;20.12;58.03
8699;BME280;4386;51.236;6.742;2022-07-05T01:59:08;101651.09;;;20.11;58.29
8699;BME280;4386;51.236;6.742;2022-07-05T02:00:12;101651.09;;;20.11;57.96
8699;BME280;4386;51.236;6.742;2022-07-05T02:01:14;101652.25;;;20.09;58.00
8699;BME280;4386;51.236;6.742;2022-07-05T02:02:19;101652.53;;;20.06;58.25
8699;BME280;4386;51.236;6.742;2022-07-05T02:03:22;101647.34;;;20.04;58.49
8699;BME280;4386;51.236;6.742;2022-07-05T02:04:45;101650.03;;;20.04;58.45
8699;BME280;4386;51.236;6.742;2022-07-05T02:05:48;101641.28;;;20.02;58.29
8699;BME280;4386;51.236;6.742;2022-07-05T02:06:50;101643.25;;;20.00;58.67
8699;BME280;4386;51.236;6.742;2022-07-05T02:07:53;101637.19;;;19.98;58.66
8699;BME280;4386;51.236;6.742;2022-07-05T02:08:55;101638.50;;;19.94;58.51
8699;BME280;4386;51.236;6.742;2022-07-05T02:09:59;101635.97;;;19.93;59.05
8699;BME280;4386;51.236;6.742;2022-07-05T02:11:02;101634.63;;;19.89;58.97
8699;BME280;4386;51.236;6.742;2022-07-05T02:12:05;101636.47;;;19.88;58.66
8699;BME280;4386;51.236;6.742;2022-07-05T02:13:08;101640.00;;;19.89;59.11
8699;BME280;4386;51.236;6.742;2022-07-05T02:14:10;101641.13;;;19.86;59.04
8699;BME280;4386;51.236;6.742;2022-07-05T02:15:13;101647.38;;;19.87;59.13
8699;BME280;4386;51.236;6.742;2022-07-05T02:16:15;101645.69;;;19.86;58.99
8699;BME280;4386;51.236;6.742;2022-07-05T02:17:17;101641.97;;;19.87;58.86
8699;BME280;4386;51.236;6.742;2022-07-05T02:18:20;101640.13;;;19.87;59.00
8699;BME280;4386;51.236;6.742;2022-07-05T02:19:22;101641.84;;;19.88;58.96
8699;BME280;4386;51.236;6.742;2022-07-05T02:20:25;101641.84;;;19.88;59.19
8699;BME280;4386;51.236;6.742;2022-07-05T02:21:27;101635.47;;;19.89;59.47
8699;BME280;4386;51.236;6.742;2022-07-05T02:22:32;101637.13;;;19.90;59.45
8699;BME280;4386;51.236;6.742;2022-07-05T02:23:33;101630.09;;;19.89;59.14
8699;BME280;4386;51.236;6.742;2022-07-05T02:24:36;101633.78;;;19.88;59.09
8699;BME280;4386;51.236;6.742;2022-07-05T02:25:39;101630.22;;;19.88;59.23
8699;BME280;4386;51.236;6.742;2022-07-05T02:26:42;101637.63;;;19.86;59.33
8699;BME280;4386;51.236;6.742;2022-07-05T02:27:44;101637.44;;;19.87;59.40
8699;BME280;4386;51.236;6.742;2022-07-05T02:28:46;101635.75;;;19.86;59.29
8699;BME280;4386;51.236;6.742;2022-07-05T02:29:48;101637.44;;;19.87;59.22
8699;BME280;4386;51.236;6.742;2022-07-05T02:30:51;101632.91;;;19.88;59.67
8699;BME280;4386;51.236;6.742;2022-07-05T02:31:53;101638.97;;;19.90;59.46
8699;BME280;4386;51.236;6.742;2022-07-05T02:32:56;101637.13;;;19.90;59.31
8699;BME280;4386;51.236;6.742;2022-07-05T02:33:57;101633.44;;;19.91;59.43
8699;BME280;4386;51.236;6.742;2022-07-05T02:35:00;101635.16;;;19.92;59.26
8699;BME280;4386;51.236;6.742;2022-07-05T02:36:06;101634.13;;;19.93;59.17
8699;BME280;4386;51.236;6.742;2022-07-05T02:37:10;101633.13;;;19.94;59.51
8699;BME280;4386;51.236;6.742;2022-07-05T02:38:11;101638.50;;;19.94;58.99
8699;BME280;4386;51.236;6.742;2022-07-05T02:39:14;101634.84;;;19.95;58.92
8699;BME280;4386;51.236;6.742;2022-07-05T02:40:16;101634.84;;;19.95;59.33
8699;BME280;4386;51.236;6.742;2022-07-05T02:41:22;101639.19;;;19.96;59.21
8699;BME280;4386;51.236;6.742;2022-07-05T02:42:24;101636.50;;;19.96;58.96
8699;BME280;4386;51.236;6.742;2022-07-05T02:43:27;101642.72;;;19.97;59.37
8699;BME280;4386;51.236;6.742;2022-07-05T02:44:28;101643.59;;;19.97;58.95
8699;BME280;4386;51.236;6.742;2022-07-05T02:45:31;101642.41;;;20.00;58.97
8699;BME280;4386;51.236;6.742;2022-07-05T02:46:33;101640.44;;;20.02;59.17
8699;BME280;4386;51.236;6.742;2022-07-05T02:47:36;101642.94;;;20.03;58.99
8699;BME280;4386;51.236;6.742;2022-07-05T02:48:37;101646.34;;;20.05;59.28
8699;BME280;4386;51.236;6.742;2022-07-05T02:49:40;101651.72;;;20.05;58.82
8699;BME280;4386;51.236;6.742;2022-07-05T02:50:42;101653.38;;;20.06;59.21
8699;BME280;4386;51.236;6.742;2022-07-05T02:51:48;101648.00;;;20.06;58.85
8699;BME280;4386;51.236;6.742;2022-07-05T02:52:51;101650.56;;;20.08;58.98
8699;BME280;4386;51.236;6.742;2022-07-05T02:53:52;101654.25;;;20.07;58.62
8699;BME280;4386;51.236;6.742;2022-07-05T02:54:56;101644.31;;;20.07;58.77
8699;BME280;4386;51.236;6.742;2022-07-05T02:55:58;101651.41;;;20.08;59.05
8699;BME280;4386;51.236;6.742;2022-07-05T02:57:02;101650.69;;;20.06;58.77
8699;BME280;4386;51.236;6.742;2022-07-05T02:58:04;101648.84;;;20.07;58.85
8699;BME280;4386;51.236;6.742;2022-07-05T02:59:07;101646.34;;;20.05;59.00
8699;BME280;4386;51.236;6.742;2022-07-05T03:00:11;101648.31;;;20.03;58.82
8699;BME280;4386;51.236;6.742;2022-07-05T03:01:14;101646.81;;;20.01;58.74
8699;BME280;4386;51.236;6.742;2022-07-05T03:02:16;101649.63;;;19.99;58.87
8699;BME280;4386;51.236;6.742;2022-07-05T03:03:18;101648.66;;;20.00;58.86
8699;BME280;4386;51.236;6.742;2022-07-05T03:04:20;101648.66;;;20.00;59.21
8699;BME280;4386;51.236;6.742;2022-07-05T03:05:23;101645.94;;;20.00;58.92
8699;BME280;4386;51.236;6.742;2022-07-05T03:06:24;101650.34;;;20.01;58.93
8699;BME280;4386;51.236;6.742;2022-07-05T03:07:27;101653.03;;;20.01;58.68
8699;BME280;4386;51.236;6.742;2022-07-05T03:08:31;101651.19;;;20.02;58.85
8699;BME280;4386;51.236;6.742;2022-07-05T03:09:33;101646.94;;;19.99;58.92
8699;BME280;4386;51.236;6.742;2022-07-05T03:10:35;101648.66;;;20.00;58.82
8699;BME280;4386;51.236;6.742;2022-07-05T03:11:38;101650.50;;;20.00;58.89
8699;BME280;4386;51.236;6.742;2022-07-05T03:12:46;101653.03;;;20.01;58.66
8699;BME280;4386;51.236;6.742;2022-07-05T03:13:49;101662.94;;;20.01;58.78
8699;BME280;4386;51.236;6.742;2022-07-05T03:14:51;101662.09;;;20.00;58.78
8699;BME280;4386;51.236;6.742;2022-07-05T03:15:53;101666.81;;;19.98;58.60
8699;BME280;4386;51.236;6.742;2022-07-05T03:16:56;101665.78;;;19.99;58.48
8699;BME280;4386;51.236;6.742;2022-07-05T03:17:58;101668.47;;;19.99;58.80
8699;BME280;4386;51.236;6.742;2022-07-05T03:19:00;101668.47;;;19.99;58.58
8699;BME280;4386;51.236;6.742;2022-07-05T03:20:03;101665.09;;;19.97;58.95
8699;BME280;4386;51.236;6.742;2022-07-05T03:21:08;101664.13;;;19.98;58.25
8699;BME280;4386;51.236;6.742;2022-07-05T03:22:13;101659.72;;;19.97;58.18
8699;BME280;4386;51.236;6.742;2022-07-05T03:23:14;101663.41;;;19.96;58.52
8699;BME280;4386;51.236;6.742;2022-07-05T03:24:17;101668.78;;;19.96;58.54
8699;BME280;4386;51.236;6.742;2022-07-05T03:25:19;101663.41;;;19.96;58.43
8699;BME280;4386;51.236;6.742;2022-07-05T03:26:22;101668.78;;;19.96;58.22
8699;BME280;4386;51.236;6.742;2022-07-05T03:27:23;101671.66;;;19.95;58.61
8699;BME280;4386;51.236;6.742;2022-07-05T03:28:27;101665.44;;;19.94;58.13
8699;BME280;4386;51.236;6.742;2022-07-05T03:29:29;101668.25;;;19.93;58.40
8699;BME280;4386;51.236;6.742;2022-07-05T03:30:32;101674.50;;;19.93;58.26
8699;BME280;4386;51.236;6.742;2022-07-05T03:31:34;101667.44;;;19.92;58.32
8699;BME280;4386;51.236;6.742;2022-07-05T03:32:37;101666.59;;;19.92;58.23
8699;BME280;4386;51.236;6.742;2022-07-05T03:33:40;101669.28;;;19.92;58.07
8699;BME280;4386;51.236;6.742;2022-07-05T03:34:43;101666.59;;;19.92;58.20
8699;BME280;4386;51.236;6.742;2022-07-05T03:35:45;101665.75;;;19.91;58.62
8699;BME280;4386;51.236;6.742;2022-07-05T03:36:48;101671.13;;;19.91;58.70
8699;BME280;4386;51.236;6.742;2022-07-05T03:37:52;101662.38;;;19.89;58.53
8699;BME280;4386;51.236;6.742;2022-07-05T03:38:55;101664.88;;;19.91;58.95
8699;BME280;4386;51.236;6.742;2022-07-05T03:40:00;101669.44;;;19.90;59.02
8699;BME280;4386;51.236;6.742;2022-07-05T03:41:02;101666.06;;;19.88;58.94
8699;BME280;4386;51.236;6.742;2022-07-05T03:42:06;101661.66;;;19.87;59.25
8699;BME280;4386;51.236;6.742;2022-07-05T03:43:07;101669.75;;;19.87;59.40
8699;BME280;4386;51.236;6.742;2022-07-05T03:44:11;101669.75;;;19.87;59.04
8699;BME280;4386;51.236;6.742;2022-07-05T03:45:13;101669.06;;;19.85;59.32
8699;BME280;4386;51.236;6.742;2022-07-05T03:46:16;101665.53;;;19.85;59.27
8699;BME280;4386;51.236;6.742;2022-07-05T03:47:19;101664.66;;;19.84;59.25
8699;BME280;4386;51.236;6.742;2022-07-05T03:48:22;101667.38;;;19.84;59.41
8699;BME280;4386;51.236;6.742;2022-07-05T03:49:42;101671.03;;;19.83;59.61
8699;BME280;4386;51.236;6.742;2022-07-05T03:50:44;101662.97;;;19.83;59.63
8699;BME280;4386;51.236;6.742;2022-07-05T03:51:47;101665.66;;;19.83;59.51
8699;BME280;4386;51.236;6.742;2022-07-05T03:52:49;101665.66;;;19.83;59.91
8699;BME280;4386;51.236;6.742;2022-07-05T03:53:54;101668.34;;;19.83;59.62
8699;BME280;4386;51.236;6.742;2022-07-05T03:54:57;101673.59;;;19.85;59.46
8699;BME280;4386;51.236;6.742;2022-07-05T03:56:00;101670.91;;;19.85;59.63
8699;BME280;4386;51.236;6.742;2022-07-05T03:57:02;101668.22;;;19.85;59.59
8699;BME280;4386;51.236;6.742;2022-07-05T03:58:05;101669.19;;;19.84;59.74
8699;BME280;4386;51.236;6.742;2022-07-05T03:59:07;101668.34;;;19.83;60.01
8699;BME280;4386;51.236;6.742;2022-07-05T04:00:13;101667.38;;;19.84;59.68
8699;BME280;4386;51.236;6.742;2022-07-05T04:01:17;101664.66;;;19.84;59.82
8699;BME280;4386;51.236;6.742;2022-07-05T04:02:20;101664.66;;;19.84;59.87
8699;BME280;4386;51.236;6.742;2022-07-05T04:03:22;101666.69;;;19.82;60.25
8699;BME280;4386;51.236;6.742;2022-07-05T04:04:25;101665.66;;;19.83;60.24
8699;BME280;4386;51.236;6.742;2022-07-05T04:05:27;101663.28;;;19.80;59.96
8699;BME280;4386;51.236;6.742;2022-07-05T04:06:30;101664.13;;;19.81;59.93
8699;BME280;4386;51.236;6.742;2022-07-05T04:07:32;101663.28;;;19.80;59.76
8699;BME280;4386;51.236;6.742;2022-07-05T04:08:37;101659.94;;;19.78;60.08
8699;BME280;4386;51.236;6.742;2022-07-05T04:09:41;101662.47;;;19.80;60.05
8699;BME280;4386;51.236;6.742;2022-07-05T04:10:44;101664.31;;;19.79;59.75
8699;BME280;4386;51.236;6.742;2022-07-05T04:11:46;101665.31;;;19.78;59.76
8699;BME280;4386;51.236;6.742;2022-07-05T04:12:49;101661.63;;;19.79;60.30
8699;BME280;4386;51.236;6.742;2022-07-05T04:13:52;101660.78;;;19.79;60.06
8699;BME280;4386;51.236;6.742;2022-07-05T04:14:54;101663.47;;;19.79;59.84
8699;BME280;4386;51.236;6.742;2022-07-05T04:15:58;101665.31;;;19.78;60.07
8699;BME280;4386;51.236;6.742;2022-07-05T04:17:00;101666.28;;;19.77;60.15
8699;BME280;4386;51.236;6.742;2022-07-05T04:18:05;101659.94;;;19.78;60.14
8699;BME280;4386;51.236;6.742;2022-07-05T04:19:08;101666.28;;;19.77;60.09
8699;BME280;4386;51.236;6.742;2022-07-05T04:20:11;101658.22;;;19.77;60.11
8699;BME280;4386;51.236;6.742;2022-07-05T04:21:16;101664.63;;;19.76;60.09
8699;BME280;4386;51.236;6.742;2022-07-05T04:22:21;101659.25;;;19.76;60.23
8699;BME280;4386;51.236;6.742;2022-07-05T04:23:23;101656.56;;;19.76;60.22
8699;BME280;4386;51.236;6.742;2022-07-05T04:24:26;101660.91;;;19.77;60.47
8699;BME280;4386;51.236;6.742;2022-07-05T04:25:28;101661.94;;;19.76;60.40
8699;BME280;4386;51.236;6.742;2022-07-05T04:26:33;101660.25;;;19.75;60.03
8699;BME280;4386;51.236;6.742;2022-07-05T04:27:35;101666.47;;;19.75;60.47
8699;BME280;4386;51.236;6.742;2022-07-05T04:28:38;101666.47;;;19.75;60.79
8699;BME280;4386;51.236;6.742;2022-07-05T04:29:40;101665.63;;;19.75;60.50
8699;BME280;4386;51.236;6.742;2022-07-05T04:30:43;101669.31;;;19.74;60.48
8699;BME280;4386;51.236;6.742;2022-07-05T04:31:46;101667.63;;;19.73;60.67
8699;BME280;4386;51.236;6.742;2022-07-05T04:32:49;101666.59;;;19.74;60.66
8699;BME280;4386;51.236;6.742;2022-07-05T04:33:56;101665.75;;;19.73;60.64
8699;BME280;4386;51.236;6.742;2022-07-05T04:34:59;101671.00;;;19.75;60.66
8699;BME280;4386;51.236;6.742;2022-07-05T04:36:03;101664.63;;;19.76;60.78
8699;BME280;4386;51.236;6.742;2022-07-05T04:37:06;101669.31;;;19.74;60.49
8699;BME280;4386;51.236;6.742;2022-07-05T04:38:08;101674.53;;;19.75;60.81
8699;BME280;4386;51.236;6.742;2022-07-05T04:39:11;101671.00;;;19.75;60.54
8699;BME280;4386;51.236;6.742;2022-07-05T04:40:13;101677.22;;;19.75;60.58
8699;BME280;4386;51.236;6.742;2022-07-05T04:41:16;101673.69;;;19.75;60.96
8699;BME280;4386;51.236;6.742;2022-07-05T04:42:18;101675.53;;;19.74;60.69
8699;BME280;4386;51.236;6.742;2022-07-05T04:43:20;101676.38;;;19.75;60.96
8699;BME280;4386;51.236;6.742;2022-07-05T04:44:24;101677.53;;;19.72;60.90
8699;BME280;4386;51.236;6.742;2022-07-05T04:45:26;101681.09;;;19.73;60.67
8699;BME280;4386;51.236;6.742;2022-07-05T04:46:28;101680.22;;;19.72;60.50
8699;BME280;4386;51.236;6.742;2022-07-05T04:47:32;101687.44;;;19.72;60.86
8699;BME280;4386;51.236;6.742;2022-07-05T04:48:37;101683.78;;;19.73;60.51
8699;BME280;4386;51.236;6.742;2022-07-05T04:49:40;101690.16;;;19.72;60.85
8699;BME280;4386;51.236;6.742;2022-07-05T04:50:42;101685.75;;;19.71;60.81
8699;BME280;4386;51.236;6.742;2022-07-05T04:51:45;101691.13;;;19.71;60.85
8699;BME280;4386;51.236;6.742;2022-07-05T04:52:48;101686.59;;;19.71;60.71
8699;BME280;4386;51.236;6.742;2022-07-05T04:53:50;101691.13;;;19.71;60.99
8699;BME280;4386;51.236;6.742;2022-07-05T04:54:53;101691.13;;;19.71;60.86
8699;BME280;4386;51.236;6.742;2022-07-05T04:55:55;101695.53;;;19.72;60.90
8699;BME280;4386;51.236;6.742;2022-07-05T04:56:58;101698.22;;;19.72;61.15
8699;BME280;4386;51.236;6.742;2022-07-05T04:57:59;101695.53;;;19.72;61.21
8699;BME280;4386;51.236;6.742;2022-07-05T04:59:04;101699.19;;;19.71;61.30
8699;BME280;4386;51.236;6.742;2022-07-05T05:00:09;101700.19;;;19.70;61.14
8699;BME280;4386;51.236;6.742;2022-07-05T05:01:13;101700.19;;;19.70;61.32
8699;BME280;4386;51.236;6.742;2022-07-05T05:02:15;101703.91;;;19.69;61.35
8699;BME280;4386;51.236;6.742;2022-07-05T05:03:19;101703.19;;;19.67;61.50
8699;BME280;4386;51.236;6.742;2022-07-05T05:04:24;101705.22;;;19.65;61.92
8699;BME280;4386;51.236;6.742;2022-07-05T05:05:28;101700.13;;;19.62;61.88
8699;BME280;4386;51.236;6.742;2022-07-05T05:06:30;101703.81;;;19.61;62.02
8699;BME280;4386;51.236;6.742;2022-07-05T05:07:33;101703.81;;;19.61;61.88
8699;BME280;4386;51.236;6.742;2022-07-05T05:08:38;101697.59;;;19.60;62.30
8699;BME280;4386;51.236;6.742;2022-07-05T05:09:40;101708.22;;;19.62;61.93
8699;BME280;4386;51.236;6.742;2022-07-05T05:10:43;101710.22;;;19.60;62.28
8699;BME280;4386;51.236;6.742;2022-07-05T05:11:46;101711.56;;;19.64;62.09
8699;BME280;4386;51.236;6.742;2022-07-05T05:12:49;101710.13;;;19.69;61.86
8699;BME280;4386;51.236;6.742;2022-07-05T05:13:51;101713.06;;;19.76;62.01
8699;BME280;4386;51.236;6.742;2022-07-05T05:14:54;101711.94;;;19.87;61.62
8699;BME280;4386;51.236;6.742;2022-07-05T05:15:56;101711.84;;;19.96;61.61
8699;BME280;4386;51.236;6.742;2022-07-05T05:17:01;101714.63;;;20.04;61.71
8699;BME280;4386;51.236;6.742;2022-07-05T05:18:02;101710.97;;;20.13;61.26
8699;BME280;4386;51.236;6.742;2022-07-05T05:19:06;101718.63;;;20.26;61.00
8699;BME280;4386;51.236;6.742;2022-07-05T05:20:11;101721.97;;;20.38;60.89
8699;BME280;4386;51.236;6.742;2022-07-05T05:21:16;101721.00;;;20.47;60.14
8699;BME280;4386;51.236;6.742;2022-07-05T05:22:21;101720.03;;;20.56;59.86
8699;BME280;4386;51.236;6.742;2022-07-05T05:23:23;101720.94;;;20.64;59.51
8699;BME280;4386;51.236;6.742;2022-07-05T05:24:26;101717.28;;;20.73;59.40
8699;BME280;4386;51.236;6.742;2022-07-05T05:25:27;101725.38;;;20.82;59.46
8699;BME280;4386;51.236;6.742;2022-07-05T05:26:31;101716.50;;;20.89;59.05
8699;BME280;4386;51.236;6.742;2022-07-05T05:27:33;101731.16;;;20.95;58.73
8699;BME280;4386;51.236;6.742;2022-07-05T05:28:38;101723.47;;;21.00;58.50
8699;BME280;4386;51.236;6.742;2022-07-05T05:29:43;101721.09;;;21.05;58.68
8699;BME280;4386;51.236;6.742;2022-07-05T05:30:46;101729.59;;;21.10;58.26
8699;BME280;4386;51.236;6.742;2022-07-05T05:31:52;101722.69;;;21.15;58.33
8699;BME280;4386;51.236;6.742;2022-07-05T05:32:54;101723.72;;;21.22;57.91
8699;BME280;4386;51.236;6.742;2022-07-05T05:33:57;101718.00;;;21.25;57.44
8699;BME280;4386;51.236;6.742;2022-07-05T05:35:00;101725.63;;;21.30;57.27
8699;BME280;4386;51.236;6.742;2022-07-05T05:36:04;101727.13;;;21.33;57.29
8699;BME280;4386;51.236;6.742;2022-07-05T05:37:08;101722.41;;;21.35;57.58
8699;BME280;4386;51.236;6.742;2022-07-05T05:38:11;101724.78;;;21.38;57.48
8699;BME280;4386;51.236;6.742;2022-07-05T05:39:13;101715.69;;;21.39;57.26